Weather at Tunbridge Airport

Public forecast

Using degrees Celsius for public forecast. Weather courtesy of forecast.io.

Closest aviation weather report (METAR) to Tunbridge Airport

Closest report is Launceston Airport, 34.7 nm (64.3 km) N.

2024/04/21 20:00 (retrieved 21 minutes ago)

YMLT 212000Z AUTO 00000KT 9999 // OVC015 08/08 Q1024 RF000/0000

Closest aviation forecast (TAF) to Tunbridge Airport

Closest forecast is Launceston Airport, 34.7 nm (64.3 km) N.

2024/04/21 18:06 Ammendment (retrieved 2 hours ago)

TAF AMD YMLT 211705Z 2118/2218 33006KT CAVOK FM211900 33006KT 9999 SCT010 FM220000 33015G25KT 9999 SCT025 FM220600 33014KT 9999 FEW030 FM221500 34010KT 9999 FEW015 SCT025 TEMPO 2119/2200 9999 BKN010 PROB30 2118/2121 0200 FG